Time;durP1;ratioP1;P1;durP2;ratioP2;P2;SDS_P1;SDS_P2;PMS_P1;PMS_P2;Temp;Humidity;BMP_temperature;BMP_pressure;BME280_temperature;BME280_humidity;BME280_pressure;Samples;Min_cycle;Max_cycle;Signal;HPM_P1;HPM_P2
2021/04/24 00:01:39;;;;;;;26.42;13.02;;;;;;;14.14;48.75;101002.69;5053796;28;20454;-75
2021/04/24 00:04:04;;;;;;;22.70;7.63;;;;;;;14.20;49.00;101000.28;5069625;28;20410;-76
2021/04/24 00:06:31;;;;;;;62.17;28.20;;;;;;;14.14;48.51;101005.31;5053850;28;20124;-76
2021/04/24 00:08:57;;;;;;;52.83;23.00;;;;;;;14.05;48.76;100992.91;5053343;28;20025;-76
2021/04/24 00:11:24;;;;;;;62.25;26.42;;;;;;;14.16;49.43;100995.00;5069349;28;20033;-75
2021/04/24 00:13:50;;;;;;;11.20;3.90;;;;;;;14.31;48.57;101015.34;5053595;28;20249;-75
2021/04/24 00:16:15;;;;;;;15.57;5.03;;;;;;;14.24;48.72;100998.69;5053429;28;20472;-75
2021/04/24 00:18:41;;;;;;;10.02;3.45;;;;;;;14.35;47.98;101005.06;5053911;28;20044;-76
2021/04/24 00:21:07;;;;;;;14.15;4.40;;;;;;;14.47;47.72;100999.38;5052874;28;20540;-75
2021/04/24 00:23:33;;;;;;;10.13;4.20;;;;;;;14.40;46.93;101002.63;5052207;28;20107;-75
2021/04/24 00:25:58;;;;;;;9.10;3.95;;;;;;;14.48;46.63;100988.16;5053438;28;20112;-75
2021/04/24 00:28:24;;;;;;;8.60;4.13;;;;;;;14.29;46.27;100954.69;5053393;28;20388;-75
2021/04/24 00:30:50;;;;;;;7.85;4.32;;;;;;;14.50;46.08;100986.47;5053704;28;20032;-76
2021/04/24 00:33:16;;;;;;;9.35;3.97;;;;;;;14.60;46.09;101002.34;5053189;28;20036;-76
2021/04/24 00:35:41;;;;;;;13.73;4.28;;;;;;;14.63;45.43;101007.59;5053401;28;20467;-76
2021/04/24 00:38:07;;;;;;;8.93;3.97;;;;;;;14.69;45.50;100997.44;5052810;28;20025;-75
2021/04/24 00:40:33;;;;;;;9.95;3.70;;;;;;;14.70;44.62;101009.59;5068651;28;20050;-76
2021/04/24 00:42:58;;;;;;;9.30;3.90;;;;;;;14.67;44.58;101000.00;5053206;28;20029;-75
2021/04/24 00:45:24;;;;;;;6.60;3.70;;;;;;;14.74;44.42;101007.97;5053134;28;20075;-76
2021/04/24 00:47:51;;;;;;;8.90;3.90;;;;;;;14.33;45.07;100941.84;5034240;28;20033;-75
2021/04/24 00:50:22;;;;;;;11.10;3.95;;;;;;;14.74;45.34;101002.75;5053070;28;20060;-75
2021/04/24 00:52:47;;;;;;;11.00;4.05;;;;;;;14.74;44.21;100990.63;5033849;28;20456;-75
2021/04/24 00:55:14;;;;;;;12.57;4.05;;;;;;;14.81;44.78;101005.56;5052985;28;20063;-76
2021/04/24 00:57:41;;;;;;;10.23;3.67;;;;;;;14.69;43.99;101003.53;5052826;28;20028;-76
2021/04/24 01:00:09;;;;;;;9.05;3.90;;;;;;;14.70;43.91;101010.50;5052974;28;20036;-79
2021/04/24 01:02:35;;;;;;;11.50;3.97;;;;;;;14.68;43.92;101004.34;5053105;28;20028;-75
2021/04/24 01:05:00;;;;;;;17.58;8.43;;;;;;;14.68;44.87;101011.28;5052708;28;20041;-75
2021/04/24 01:07:27;;;;;;;16.42;5.65;;;;;;;14.39;44.34;100949.81;5052817;28;20418;-76
2021/04/24 01:09:52;;;;;;;30.88;11.05;;;;;;;14.65;44.21;101005.97;5052609;28;20419;-76
2021/04/24 01:12:18;;;;;;;8.82;3.90;;;;;;;14.64;44.20;101007.69;5052674;28;20029;-76
2021/04/24 01:14:43;;;;;;;11.30;5.03;;;;;;;14.44;43.83;100995.81;5052596;28;20048;-74
2021/04/24 01:17:09;;;;;;;14.70;5.13;;;;;;;14.45;43.89;100992.38;5052329;28;20025;-75
2021/04/24 01:19:34;;;;;;;11.13;5.28;;;;;;;14.44;44.06;100994.06;5052140;28;20029;-77
2021/04/24 01:22:18;;;;;;;15.23;5.78;;;;;;;14.39;43.95;101003.44;5052398;28;20463;-76
2021/04/24 01:24:44;;;;;;;18.70;6.80;;;;;;;14.27;43.80;100997.88;5052522;28;20086;-76
2021/04/24 01:27:10;;;;;;;15.88;7.60;;;;;;;14.01;45.05;100998.00;5052428;28;20025;-76
2021/04/24 01:29:37;;;;;;;14.45;4.07;;;;;;;13.96;45.05;100996.97;5052049;28;20039;-75
2021/04/24 01:32:04;;;;;;;23.58;9.57;;;;;;;13.95;45.67;101001.25;5052190;28;20036;-76
2021/04/24 01:34:31;;;;;;;24.08;11.45;;;;;;;13.92;45.65;101006.38;5051896;28;20086;-76
2021/04/24 01:36:58;;;;;;;12.05;4.78;;;;;;;13.89;45.51;101007.16;5052085;28;20484;-76
2021/04/24 01:39:25;;;;;;;24.25;10.77;;;;;;;13.96;45.58;101008.22;5050531;28;20036;-75
2021/04/24 01:41:51;;;;;;;9.43;4.10;;;;;;;14.01;45.28;101016.16;5051864;28;20036;-76
2021/04/24 01:44:16;;;;;;;9.05;3.90;;;;;;;13.58;44.27;100937.81;5051995;28;20025;-75
2021/04/24 01:46:42;;;;;;;18.17;7.97;;;;;;;14.02;44.04;101012.75;5051547;28;20446;-75
2021/04/24 01:49:08;;;;;;;17.25;7.28;;;;;;;13.91;44.37;101002.88;5051887;28;20031;-76
2021/04/24 01:51:33;;;;;;;9.63;3.95;;;;;;;14.00;42.51;101024.78;5050642;28;20032;-75
2021/04/24 01:53:59;;;;;;;10.95;4.65;;;;;;;13.93;42.45;101015.03;5051930;28;20021;-76
2021/04/24 01:56:24;;;;;;;11.90;5.78;;;;;;;14.12;42.24;101027.75;5051891;28;20068;-75
2021/04/24 01:58:53;;;;;;;11.73;4.40;;;;;;;14.13;42.70;101023.44;5051550;28;20111;-75
2021/04/24 02:01:18;;;;;;;9.05;3.88;;;;;;;14.13;41.85;101028.63;5051675;28;20028;-76
2021/04/24 02:03:48;;;;;;;9.70;5.18;;;;;;;14.12;42.05;101026.88;5051787;28;20423;-76
2021/04/24 02:06:14;;;;;;;13.55;6.40;;;;;;;14.07;42.77;101012.03;5051355;28;20060;-76
2021/04/24 02:08:44;;;;;;;16.42;7.07;;;;;;;14.12;41.97;101021.66;5051360;28;20024;-76
2021/04/24 02:11:11;;;;;;;11.90;4.35;;;;;;;14.15;42.32;101024.38;5049503;28;20032;-77
2021/04/24 02:13:40;;;;;;;17.58;7.18;;;;;;;14.15;44.23;101016.59;5051377;28;20112;-76
2021/04/24 02:16:07;;;;;;;10.93;4.93;;;;;;;14.02;43.08;101016.19;5050115;28;20025;-76
2021/04/24 02:18:33;;;;;;;10.55;4.38;;;;;;;14.02;43.98;101025.72;5051394;28;20063;-76
2021/04/24 02:20:58;;;;;;;12.13;4.80;;;;;;;14.05;44.55;101023.19;5051519;28;20025;-75
2021/04/24 02:23:24;;;;;;;9.38;4.03;;;;;;;13.94;44.87;101002.09;5051537;28;20036;-76
2021/04/24 02:25:50;;;;;;;14.60;4.82;;;;;;;13.74;45.79;100976.41;5051266;28;20024;-76
2021/04/24 02:28:16;;;;;;;9.95;4.75;;;;;;;14.02;46.46;101023.13;5051451;28;20028;-75
2021/04/24 02:30:43;;;;;;;12.93;3.92;;;;;;;13.75;46.54;100972.94;5050923;28;20483;-76
2021/04/24 02:33:10;;;;;;;7.25;3.90;;;;;;;13.86;45.30;101004.44;5051323;28;20021;-76
2021/04/24 02:35:49;;;;;;;11.75;4.43;;;;;;;14.06;45.65;101033.63;5050038;28;20495;-75
2021/04/24 02:38:24;;;;;;;7.15;3.75;;;;;;;14.12;46.15;101045.94;5049789;28;20557;-75
2021/04/24 02:40:52;;;;;;;16.15;4.40;;;;;;;14.13;46.17;101042.50;5049525;28;20033;-76
2021/04/24 02:43:18;;;;;;;11.38;4.28;;;;;;;14.11;45.23;101030.31;5051393;28;20033;-76
2021/04/24 02:45:44;;;;;;;11.70;4.50;;;;;;;14.13;44.88;101036.41;5053109;28;20028;-76
2021/04/24 02:48:10;;;;;;;10.77;4.25;;;;;;;14.12;45.51;101034.66;5055120;28;20033;-77
2021/04/24 02:50:36;;;;;;;13.27;4.97;;;;;;;14.15;45.61;101056.41;5055078;28;20475;-76
2021/04/24 02:53:02;;;;;;;17.83;5.35;;;;;;;13.99;46.10;101044.66;5055282;28;20029;-76
2021/04/24 02:55:28;;;;;;;16.27;5.38;;;;;;;13.99;44.75;101061.94;5055171;28;20032;-76
2021/04/24 02:57:54;;;;;;;12.98;4.75;;;;;;;13.93;44.05;101070.41;5055118;28;20087;-75
2021/04/24 03:00:21;;;;;;;17.05;6.30;;;;;;;13.51;43.86;100998.13;5053083;28;20037;-75
2021/04/24 03:02:57;;;;;;;32.70;15.07;;;;;;;13.82;43.66;101063.97;5054513;28;20029;-76
2021/04/24 03:05:22;;;;;;;13.07;5.65;;;;;;;13.84;44.08;101058.00;5055103;28;20029;-75
2021/04/24 03:07:48;;;;;;;46.75;17.98;;;;;;;13.80;44.10;101057.88;5054687;28;20053;-76
2021/04/24 03:10:14;;;;;;;11.57;4.80;;;;;;;13.82;44.27;101056.19;5054812;28;20040;-75
2021/04/24 03:12:39;;;;;;;8.43;4.05;;;;;;;13.54;43.68;101022.41;5054904;28;20021;-75
2021/04/24 03:15:07;;;;;;;12.85;5.65;;;;;;;13.78;43.95;101064.72;5054844;28;20032;-77
2021/04/24 03:17:32;;;;;;;12.35;4.82;;;;;;;13.77;44.00;101062.94;5053552;28;20483;-76
2021/04/24 03:19:58;;;;;;;9.88;4.15;;;;;;;13.77;43.55;101069.03;5054488;28;20028;-76
2021/04/24 03:22:24;;;;;;;33.72;16.40;;;;;;;13.84;44.68;101067.53;5054774;28;20538;-75
2021/04/24 03:24:49;;;;;;;30.98;15.98;;;;;;;13.73;43.29;101075.84;5054168;28;20052;-76
2021/04/24 03:27:15;;;;;;;18.65;6.97;;;;;;;13.63;43.96;101058.16;5054601;28;20408;-76
2021/04/24 03:29:40;;;;;;;29.48;11.75;;;;;;;13.65;44.30;101071.22;5054532;28;20471;-76
2021/04/24 03:32:06;;;;;;;15.45;6.75;;;;;;;13.54;43.85;101066.53;5054535;28;20060;-75
2021/04/24 03:34:32;;;;;;;24.02;9.98;;;;;;;13.53;44.32;101058.69;5035886;28;20040;-75
2021/04/24 03:36:58;;;;;;;22.83;8.13;;;;;;;13.58;44.80;101075.28;5054170;28;20032;-74
2021/04/24 03:39:24;;;;;;;21.05;10.98;;;;;;;13.54;45.22;101071.72;5054086;28;20028;-75
2021/04/24 03:41:50;;;;;;;17.50;5.05;;;;;;;13.17;46.61;100999.50;5054365;28;20479;-74
2021/04/24 03:44:16;;;;;;;16.50;7.63;;;;;;;13.71;45.96;101074.88;5054373;28;20443;-74
2021/04/24 03:46:41;;;;;;;8.57;5.00;;;;;;;13.71;46.34;101087.88;5053952;28;20055;-76
2021/04/24 03:49:07;;;;;;;9.45;4.60;;;;;;;13.54;45.29;101069.13;5054213;28;20036;-76
2021/04/24 03:51:32;;;;;;;13.52;6.78;;;;;;;13.57;45.27;101082.22;5054192;28;20029;-75
2021/04/24 03:53:57;;;;;;;14.38;7.50;;;;;;;13.52;45.37;101073.38;5053572;28;20491;-75
2021/04/24 03:56:23;;;;;;;12.60;5.95;;;;;;;13.66;44.72;101094.63;5048936;28;20029;-75
2021/04/24 03:58:48;;;;;;;15.32;6.75;;;;;;;13.65;45.10;101099.75;5034202;28;20480;-76
2021/04/24 04:01:14;;;;;;;13.85;6.30;;;;;;;13.49;45.66;101087.97;5044583;28;20510;-77
2021/04/24 04:03:40;;;;;;;29.17;15.90;;;;;;;13.51;45.34;101101.88;5058292;28;20021;-75
2021/04/24 04:06:05;;;;;;;14.88;7.38;;;;;;;13.56;45.86;101102.91;5065846;28;20053;-75
2021/04/24 04:08:31;;;;;;;45.83;17.50;;;;;;;13.40;46.00;101098.91;5064114;28;20037;-76
2021/04/24 04:10:56;;;;;;;31.42;13.10;;;;;;;13.37;46.23;101094.47;5048073;28;20072;-77
2021/04/24 04:13:22;;;;;;;43.28;18.63;;;;;;;13.34;45.71;101089.13;5033782;28;20034;-76
2021/04/24 04:15:47;;;;;;;31.52;10.65;;;;;;;13.56;45.84;101113.28;5047055;28;20029;-75
2021/04/24 04:18:15;;;;;;;33.55;12.93;;;;;;;13.59;45.46;101121.16;5053409;28;20051;-75
2021/04/24 04:20:53;;;;;;;23.45;6.07;;;;;;;13.64;46.09;101117.00;5053121;28;20419;-75
2021/04/24 04:23:19;;;;;;;15.40;5.65;;;;;;;13.61;46.42;101113.44;5033533;28;20446;-76
2021/04/24 04:25:46;;;;;;;16.10;6.13;;;;;;;13.71;48.68;101126.78;5045701;28;20029;-77
2021/04/24 04:28:13;;;;;;;12.05;5.18;;;;;;;13.73;49.95;101116.44;5050601;28;20035;-75
2021/04/24 04:30:39;;;;;;;13.20;4.53;;;;;;;13.87;45.93;101125.59;5053368;28;20510;-73
2021/04/24 04:33:07;;;;;;;10.07;4.68;;;;;;;13.74;46.62;101108.75;5053602;28;20036;-75
2021/04/24 04:35:35;;;;;;;11.55;4.57;;;;;;;13.79;46.77;101120.97;5053136;28;20525;-74
2021/04/24 04:38:00;;;;;;;12.70;4.43;;;;;;;13.46;47.37;101068.00;5053447;28;20411;-75
2021/04/24 04:40:26;;;;;;;14.73;4.57;;;;;;;13.61;47.14;101105.66;5053348;28;20039;-75
2021/04/24 04:42:51;;;;;;;11.35;4.63;;;;;;;13.60;47.97;101128.13;5053408;28;20448;-75
2021/04/24 04:45:18;;;;;;;14.52;4.95;;;;;;;13.80;48.28;101126.22;5053096;28;20039;-75
2021/04/24 04:47:45;;;;;;;18.42;4.70;;;;;;;13.88;47.74;101129.06;5053315;28;20035;-75
2021/04/24 04:50:15;;;;;;;12.48;4.72;;;;;;;13.77;47.80;101125.22;5053345;28;20037;-75
2021/04/24 04:52:41;;;;;;;15.25;5.00;;;;;;;13.60;47.57;101117.75;5053219;28;20036;-75
2021/04/24 04:55:08;;;;;;;18.55;5.53;;;;;;;13.73;46.22;101138.13;5053094;28;20020;-76
2021/04/24 04:57:34;;;;;;;18.35;5.05;;;;;;;13.74;44.18;101123.41;5053491;28;20024;-75
2021/04/24 04:59:59;;;;;;;25.52;8.18;;;;;;;13.80;45.39;101140.91;5052717;28;20032;-75
2021/04/24 05:02:25;;;;;;;15.55;4.97;;;;;;;13.87;45.77;101137.72;5053308;28;20043;-75
2021/04/24 05:04:50;;;;;;;14.20;5.10;;;;;;;13.43;45.21;101042.81;5017368;28;20128;-75
2021/04/24 05:07:16;;;;;;;21.42;5.60;;;;;;;13.88;46.61;101122.19;5067825;28;20111;-74
2021/04/24 05:09:41;;;;;;;12.25;3.88;;;;;;;13.40;48.36;101083.34;5052236;28;20025;-75
2021/04/24 05:12:08;;;;;;;8.05;3.97;;;;;;;13.72;49.08;101138.94;5052930;28;20025;-74
2021/04/24 05:14:34;;;;;;;10.80;4.82;;;;;;;13.82;50.09;101134.94;5034169;28;20052;-76
2021/04/24 05:16:59;;;;;;;8.57;4.57;;;;;;;13.62;49.82;101116.09;5052838;28;20032;-75
2021/04/24 05:19:25;;;;;;;13.70;4.05;;;;;;;13.73;49.40;101119.03;5052422;28;20029;-75
2021/04/24 05:21:51;;;;;;;8.13;4.13;;;;;;;13.59;50.03;101144.53;5051398;28;20036;-75
2021/04/24 05:24:16;;;;;;;7.85;3.55;;;;;;;13.46;49.01;101139.72;5053005;28;20021;-74
2021/04/24 05:26:42;;;;;;;7.43;3.92;;;;;;;13.47;49.68;101141.47;5052613;28;20038;-75
2021/04/24 05:29:07;;;;;;;10.93;3.97;;;;;;;13.37;49.97;101137.63;5052643;28;20126;-75
2021/04/24 05:31:33;;;;;;;9.35;4.00;;;;;;;13.41;50.55;101144.75;5052206;28;20029;-75
2021/04/24 05:33:59;;;;;;;5.55;3.40;;;;;;;13.24;51.04;101136.31;5052290;28;20037;-73
2021/04/24 05:36:25;;;;;;;7.53;3.47;;;;;;;13.08;50.83;101115.03;5052131;28;20457;-75
2021/04/24 05:38:54;;;;;;;8.25;3.75;;;;;;;13.06;51.38;101093.34;5051069;28;20089;-75
2021/04/24 05:41:22;;;;;;;10.23;3.70;;;;;;;13.05;50.58;101099.34;5052123;28;20036;-75
2021/04/24 05:43:52;;;;;;;7.43;3.55;;;;;;;13.51;50.35;101154.63;5052335;28;20120;-74
2021/04/24 05:46:22;;;;;;;7.28;3.78;;;;;;;13.33;51.16;101113.31;5052168;28;20021;-74
2021/04/24 05:48:48;;;;;;;8.80;3.72;;;;;;;13.58;50.08;101156.63;5052255;28;20025;-74
2021/04/24 05:51:13;;;;;;;6.18;3.60;;;;;;;13.51;48.72;101154.63;5067521;28;20036;-75
2021/04/24 05:53:40;;;;;;;7.68;4.15;;;;;;;13.27;49.72;101164.94;5050800;28;20115;-75
2021/04/24 05:56:05;;;;;;;11.55;3.92;;;;;;;13.10;49.65;101156.56;5052103;28;20132;-75
2021/04/24 05:58:31;;;;;;;5.97;3.60;;;;;;;13.04;49.70;101162.38;5051912;28;20078;-75
2021/04/24 06:00:56;;;;;;;9.63;3.72;;;;;;;13.08;51.29;101160.78;5051469;28;20021;-74
2021/04/24 06:03:22;;;;;;;10.65;3.67;;;;;;;12.97;50.18;101168.16;5050847;28;20028;-75
2021/04/24 06:05:48;;;;;;;8.93;3.60;;;;;;;12.95;50.11;101169.81;5051940;28;20368;-75
2021/04/24 06:08:14;;;;;;;7.50;3.70;;;;;;;12.93;51.72;101167.16;5052136;28;20059;-75
2021/04/24 06:10:39;;;;;;;8.02;4.18;;;;;;;13.07;51.11;101170.28;5051868;28;20037;-75
2021/04/24 06:13:05;;;;;;;9.05;4.22;;;;;;;12.97;50.99;101162.09;5051878;28;20025;-73
2021/04/24 06:15:30;;;;;;;8.68;3.92;;;;;;;12.88;51.10;101149.66;5051154;28;20471;-74
2021/04/24 06:17:56;;;;;;;8.07;4.00;;;;;;;12.93;51.10;101172.34;5051510;28;20061;-75
2021/04/24 06:20:21;;;;;;;9.48;3.90;;;;;;;12.65;50.75;101108.22;5050619;28;20150;-75
2021/04/24 06:22:47;;;;;;;14.05;4.00;;;;;;;13.06;49.95;101181.47;5051686;28;20111;-75
2021/04/24 06:25:18;;;;;;;10.43;4.32;;;;;;;13.02;50.48;101178.69;5032994;28;20079;-75
2021/04/24 06:27:44;;;;;;;8.65;3.63;;;;;;;13.01;49.91;101175.22;5051712;28;20033;-77
2021/04/24 06:30:12;;;;;;;8.95;3.38;;;;;;;12.96;50.22;101176.78;5051692;28;20450;-75
2021/04/24 06:32:37;;;;;;;6.97;3.30;;;;;;;12.94;50.33;101158.53;5043406;28;20574;-75
2021/04/24 06:35:05;;;;;;;11.52;3.95;;;;;;;13.02;50.34;101157.97;5031669;28;20030;-75
2021/04/24 06:37:30;;;;;;;10.65;4.60;;;;;;;13.17;50.16;101175.81;5031374;28;20473;-75
2021/04/24 06:39:56;;;;;;;11.48;3.80;;;;;;;13.13;49.87;101163.56;5031332;28;20029;-75
2021/04/24 06:42:22;;;;;;;9.77;3.95;;;;;;;13.32;49.69;101183.28;5031347;28;20097;-75
2021/04/24 06:44:48;;;;;;;7.93;3.80;;;;;;;13.35;49.87;101192.06;5031126;28;20038;-75
2021/04/24 06:47:13;;;;;;;12.35;4.35;;;;;;;13.38;49.56;101189.63;5031524;28;20040;-75
2021/04/24 06:49:39;;;;;;;6.25;3.30;;;;;;;13.02;48.68;101109.63;5031651;28;20060;-75
2021/04/24 06:52:05;;;;;;;16.80;6.30;;;;;;;13.59;48.75;101194.72;5031272;28;20033;-75
2021/04/24 06:54:31;;;;;;;9.73;3.88;;;;;;;13.70;49.06;101192.47;5031439;28;20030;-75
2021/04/24 06:56:57;;;;;;;10.30;3.88;;;;;;;13.78;48.22;101189.28;5031263;28;20027;-75
2021/04/24 06:59:23;;;;;;;10.98;3.75;;;;;;;13.74;48.02;101198.66;5030948;28;20523;-75
2021/04/24 07:01:48;;;;;;;10.27;5.78;;;;;;;13.73;48.77;101194.31;5031503;28;20471;-75
2021/04/24 07:04:14;;;;;;;15.80;7.03;;;;;;;13.55;48.79;101166.88;5031598;28;20116;-75
2021/04/24 07:06:39;;;;;;;10.05;4.65;;;;;;;13.86;48.65;101193.91;5031628;28;20523;-74
2021/04/24 07:09:05;;;;;;;9.43;4.10;;;;;;;14.07;49.13;101198.09;5031151;28;20067;-75
2021/04/24 07:11:31;;;;;;;6.97;3.88;;;;;;;14.19;48.13;101188.13;5030944;28;20033;-75
2021/04/24 07:13:56;;;;;;;13.95;7.40;;;;;;;14.06;47.77;101152.19;5031202;28;20045;-75
2021/04/24 07:16:21;;;;;;;9.48;5.15;;;;;;;14.30;48.33;101190.19;5031260;28;20470;-76
2021/04/24 07:18:47;;;;;;;10.57;4.57;;;;;;;13.57;47.89;101120.22;5031355;28;20033;-75
2021/04/24 07:21:12;;;;;;;8.07;5.78;;;;;;;13.83;49.03;101195.50;5031195;28;20041;-75
2021/04/24 07:23:40;;;;;;;8.35;4.13;;;;;;;13.76;49.24;101189.25;5029957;28;20029;-75
2021/04/24 07:26:07;;;;;;;5.82;3.38;;;;;;;13.66;50.37;101184.56;5031241;28;20112;-75
2021/04/24 07:28:32;;;;;;;11.48;4.68;;;;;;;13.68;50.16;101198.44;5030935;28;20039;-74
2021/04/24 07:30:59;;;;;;;11.60;4.80;;;;;;;13.50;50.79;101194.38;5031359;28;20034;-75
2021/04/24 07:33:25;;;;;;;8.85;4.75;;;;;;;13.43;50.32;101167.31;5034704;28;20040;-75
2021/04/24 07:35:51;;;;;;;13.73;5.63;;;;;;;13.71;49.20;101211.56;5034582;28;20030;-75
2021/04/24 07:38:18;;;;;;;13.35;6.72;;;;;;;13.55;48.62;101190.22;5034778;28;20037;-75
2021/04/24 07:40:44;;;;;;;12.90;6.47;;;;;;;13.70;50.11;101208.06;5033373;28;20033;-74
2021/04/24 07:43:11;;;;;;;8.80;5.72;;;;;;;13.34;49.67;101158.28;5034037;28;20036;-75
2021/04/24 07:45:37;;;;;;;12.30;8.48;;;;;;;13.53;50.27;101216.94;5034703;28;20033;-74
2021/04/24 07:48:03;;;;;;;31.00;26.55;;;;;;;13.58;50.06;101210.19;5034740;28;20064;-75
2021/04/24 07:50:28;;;;;;;8.38;6.47;;;;;;;13.63;50.01;101216.44;5034296;28;20506;-75
2021/04/24 07:52:53;;;;;;;11.48;6.10;;;;;;;13.67;51.87;101207.06;5034659;28;20022;-75
2021/04/24 07:55:19;;;;;;;9.45;4.82;;;;;;;13.57;50.77;101193.75;5034347;28;20030;-76
2021/04/24 07:57:45;;;;;;;9.07;4.25;;;;;;;13.77;51.53;101209.19;5032867;28;20135;-74
2021/04/24 08:00:11;;;;;;;8.43;4.38;;;;;;;13.38;51.63;101155.00;5034256;28;20068;-75
2021/04/24 08:02:37;;;;;;;7.93;4.10;;;;;;;13.80;52.13;101226.56;5034068;28;20036;-75
2021/04/24 08:05:03;;;;;;;10.88;5.97;;;;;;;13.91;51.11;101218.31;5034334;28;20029;-76
2021/04/24 08:07:29;;;;;;;10.23;4.95;;;;;;;13.86;51.40;101222.47;5033712;28;20057;-75
2021/04/24 08:09:54;;;;;;;9.95;5.22;;;;;;;13.71;51.92;101193.38;5032598;28;20063;-75
2021/04/24 08:12:20;;;;;;;15.10;8.75;;;;;;;13.92;51.99;101221.81;5033777;28;20094;-76
2021/04/24 08:14:46;;;;;;;34.28;21.33;;;;;;;13.85;50.21;101217.22;5034009;28;20026;-76
2021/04/24 08:17:13;;;;;;;10.70;6.85;;;;;;;13.78;49.71;101210.03;5034071;28;20025;-75
2021/04/24 08:19:38;;;;;;;8.50;4.30;;;;;;;13.73;50.06;101221.16;5033859;28;20033;-76
2021/04/24 08:22:06;;;;;;;9.82;4.18;;;;;;;13.38;49.91;101163.69;5033572;28;20036;-75
2021/04/24 08:24:31;;;;;;;10.40;5.70;;;;;;;13.45;51.15;101169.09;5032511;28;20033;-78
2021/04/24 08:26:57;;;;;;;10.43;4.28;;;;;;;13.80;52.01;101230.03;5033575;28;20033;-75
2021/04/24 08:29:22;;;;;;;9.68;3.97;;;;;;;13.75;51.46;101208.22;5031234;28;20041;-75
2021/04/24 08:31:48;;;;;;;9.38;4.38;;;;;;;13.92;50.75;101229.59;5031387;28;20065;-75
2021/04/24 08:34:13;;;;;;;12.25;4.95;;;;;;;14.02;50.35;101234.28;5014808;28;20037;-77
2021/04/24 08:36:40;;;;;;;5.60;3.75;;;;;;;14.07;49.44;101226.66;5031309;28;20033;-75
2021/04/24 08:39:07;;;;;;;8.32;4.00;;;;;;;14.05;49.56;101229.19;5031099;28;20083;-76
2021/04/24 08:41:33;;;;;;;7.97;4.43;;;;;;;14.00;49.82;101219.47;5030985;28;20037;-75
2021/04/24 08:43:59;;;;;;;6.38;3.58;;;;;;;14.17;50.16;101225.28;5030359;28;20056;-75
2021/04/24 08:46:25;;;;;;;8.55;3.72;;;;;;;14.13;49.70;101205.19;5031171;28;20075;-75
2021/04/24 08:48:52;;;;;;;8.05;4.47;;;;;;;14.23;48.84;101210.75;5031069;28;20392;-76
2021/04/24 08:51:23;;;;;;;12.98;4.68;;;;;;;14.22;48.63;101200.34;5030960;28;20029;-78
2021/04/24 08:53:51;;;;;;;14.05;4.03;;;;;;;14.04;49.56;101200.56;5030594;28;20491;-75
2021/04/24 08:56:18;;;;;;;10.80;3.97;;;;;;;13.84;49.86;101199.88;5030872;28;20045;-78
2021/04/24 08:58:44;;;;;;;24.70;4.25;;;;;;;13.90;51.02;101211.34;5030788;28;20120;-75
2021/04/24 09:01:11;;;;;;;8.70;3.97;;;;;;;13.99;50.90;101199.53;5032475;28;20057;-76
2021/04/24 09:03:37;;;;;;;7.10;3.70;;;;;;;14.04;51.29;101197.97;5048541;28;20053;-75
2021/04/24 09:06:03;;;;;;;20.77;8.00;;;;;;;14.07;50.37;101193.78;5033028;28;20534;-76
2021/04/24 09:08:29;;;;;;;10.00;3.90;;;;;;;14.07;49.89;101178.19;5032469;28;20057;-76
2021/04/24 09:10:57;;;;;;;6.22;3.70;;;;;;;13.95;50.22;101185.56;5033030;28;20104;-75
2021/04/24 09:13:26;;;;;;;7.47;3.85;;;;;;;13.93;51.22;101184.63;5032989;28;20036;-76
2021/04/24 09:15:52;;;;;;;10.18;4.43;;;;;;;14.02;51.15;101155.53;5048041;28;20068;-75
2021/04/24 09:18:20;;;;;;;8.82;3.83;;;;;;;13.93;50.92;101119.72;5032853;28;20453;-75
2021/04/24 09:20:55;;;;;;;16.75;7.82;;;;;;;14.21;51.82;101165.66;5032354;28;20079;-74
2021/04/24 09:23:29;;;;;;;6.50;3.78;;;;;;;14.22;52.05;101161.38;5032736;28;20033;-75
2021/04/24 09:26:02;;;;;;;7.93;4.65;;;;;;;13.88;50.73;101091.03;5032454;28;20029;-75
2021/04/24 09:28:43;;;;;;;13.32;4.40;;;;;;;14.28;49.97;101145.09;5032714;28;20064;-75
2021/04/24 09:31:17;;;;;;;13.85;6.25;;;;;;;14.17;49.11;101095.44;5032293;28;20061;-75
2021/04/24 09:33:44;;;;;;;10.68;3.95;;;;;;;14.46;49.24;101132.69;5032518;28;20063;-75
2021/04/24 09:36:11;;;;;;;10.23;3.78;;;;;;;14.62;50.04;101141.00;5032218;28;20480;-75
2021/04/24 09:38:42;;;;;;;10.48;4.35;;;;;;;14.26;48.76;101074.94;5032761;28;20036;-76
2021/04/24 09:41:28;;;;;;;12.23;4.63;;;;;;;14.56;50.48;101133.88;5047770;28;20025;-75
2021/04/24 09:43:57;;;;;;;9.52;4.03;;;;;;;14.60;51.37;101130.53;5047435;28;20042;-75
2021/04/24 09:46:49;;;;;;;11.00;4.07;;;;;;;14.62;51.26;101121.09;5047678;28;20060;-75
2021/04/24 09:49:18;;;;;;;13.23;5.63;;;;;;;14.72;51.97;101123.16;5031917;28;20551;-76
2021/04/24 09:52:01;;;;;;;10.80;4.10;;;;;;;14.71;50.20;101110.13;5056821;28;20032;-75
2021/04/24 09:54:43;;;;;;;10.68;4.68;;;;;;;14.68;49.73;101123.91;5046900;28;20040;-76
2021/04/24 09:57:10;;;;;;;11.55;4.70;;;;;;;14.70;51.18;101122.25;5051541;28;20025;-75
2021/04/24 09:59:57;;;;;;;13.02;4.22;;;;;;;14.70;50.99;101121.34;5051618;28;20487;-75
2021/04/24 10:02:40;;;;;;;7.30;3.50;;;;;;;14.78;49.97;101129.38;5051830;28;20029;-74
2021/04/24 10:05:14;;;;;;;8.55;3.88;;;;;;;14.60;50.19;101109.75;5064837;28;20029;-74
2021/04/24 10:07:42;;;;;;;9.50;4.35;;;;;;;14.58;50.23;101121.84;5041915;28;20052;-75
2021/04/24 10:10:10;;;;;;;6.63;3.83;;;;;;;14.62;49.68;101110.69;5055736;28;20397;-75
2021/04/24 10:12:39;;;;;;;6.72;3.17;;;;;;;14.57;50.87;101113.13;5040676;28;20074;-74
2021/04/24 10:15:06;;;;;;;8.25;3.95;;;;;;;14.18;50.65;101045.22;5041876;28;20087;-74
2021/04/24 10:17:32;;;;;;;7.95;4.07;;;;;;;14.67;49.33;101119.53;5040923;28;20061;-75
2021/04/24 10:20:01;;;;;;;16.30;9.38;;;;;;;14.61;49.50;101108.91;5039969;28;20098;-75
2021/04/24 10:22:27;;;;;;;11.75;4.95;;;;;;;14.19;50.02;101041.81;5041924;28;20059;-78
2021/04/24 10:24:54;;;;;;;15.57;4.90;;;;;;;14.48;47.35;101105.06;5041392;28;20025;-75
2021/04/24 10:27:21;;;;;;;12.15;4.38;;;;;;;14.33;48.13;101108.06;5040089;28;20045;-75
2021/04/24 10:29:48;;;;;;;7.60;3.47;;;;;;;14.30;49.23;101094.97;5046610;28;20099;-76
2021/04/24 10:32:15;;;;;;;6.07;4.03;;;;;;;14.45;47.71;101111.88;5036176;28;20029;-76
2021/04/24 10:34:41;;;;;;;10.38;4.00;;;;;;;14.61;46.02;101108.03;5037189;28;20480;-76
2021/04/24 10:37:07;;;;;;;9.73;3.75;;;;;;;14.70;45.94;101095.34;5038805;28;20032;-75
2021/04/24 10:39:39;;;;;;;8.15;3.63;;;;;;;14.41;44.96;101053.75;5041427;28;20616;-76
2021/04/24 10:42:21;;;;;;;9.82;3.72;;;;;;;14.69;44.37;101106.56;5035362;28;20032;-76
2021/04/24 10:44:50;;;;;;;13.75;4.55;;;;;;;14.71;45.70;101110.97;5045352;28;20026;-73
2021/04/24 10:47:36;;;;;;;13.10;8.80;;;;;;;14.57;44.36;101102.75;5042954;28;20087;-73
2021/04/24 10:50:02;;;;;;;9.57;5.25;;;;;;;14.43;44.54;101084.97;5048630;28;20103;-73
2021/04/24 10:52:28;;;;;;;9.00;3.85;;;;;;;14.07;45.19;101057.91;5046977;28;20033;-74
2021/04/24 10:55:12;;;;;;;9.57;3.60;;;;;;;14.28;45.92;101113.94;5049156;28;20029;-73
2021/04/24 10:57:40;;;;;;;14.95;7.43;;;;;;;14.33;46.88;101107.16;5049034;28;20024;-72
2021/04/24 11:00:16;;;;;;;7.47;3.15;;;;;;;14.44;47.97;101105.78;5049381;28;20487;-73
2021/04/24 11:02:51;;;;;;;10.32;3.83;;;;;;;14.59;45.05;101110.56;5046122;28;20102;-73
2021/04/24 11:05:26;;;;;;;9.35;3.92;;;;;;;14.61;43.39;101102.84;5048730;28;20108;-75
2021/04/24 11:08:11;;;;;;;10.68;5.07;;;;;;;14.67;43.94;101103.06;5033507;28;20083;-71
2021/04/24 11:10:47;;;;;;;11.20;6.65;;;;;;;14.46;41.98;101108.44;5053379;28;20491;-75
2021/04/24 11:13:17;;;;;;;13.48;5.28;;;;;;;14.39;43.61;101102.16;5052978;28;20032;-73
2021/04/24 11:15:43;;;;;;;12.05;8.05;;;;;;;14.35;44.33;101097.72;5053398;28;20124;-71
2021/04/24 11:18:11;;;;;;;10.50;6.10;;;;;;;14.51;46.14;101104.28;5053542;28;20029;-70
2021/04/24 11:20:51;;;;;;;13.00;3.95;;;;;;;14.70;44.77;101111.84;5053579;28;20032;-72